Time;durP1;ratioP1;P1;durP2;ratioP2;P2;SDS_P1;SDS_P2;PMS_P1;PMS_P2;Temp;Humidity;BMP_temperature;BMP_pressure;BME280_temperature;BME280_humidity;BME280_pressure;Samples;Min_cycle;Max_cycle;Signal;HPM_P1;HPM_P2
2022/04/05 00:00:32;;;;;;;5.70;5.20;;;;;;;;;;5072773;28;20071;-68
2022/04/05 00:02:58;;;;;;;6.95;5.43;;;;;;;;;;5070907;28;20032;-70
2022/04/05 00:05:24;;;;;;;5.45;4.95;;;;;;;;;;5072467;28;20479;-68
2022/04/05 00:07:50;;;;;;;6.35;4.93;;;;;;;;;;5072251;28;20408;-70
2022/04/05 00:10:16;;;;;;;4.43;3.88;;;;;;;;;;5072153;28;20048;-69
2022/04/05 00:12:42;;;;;;;5.57;5.07;;;;;;;;;;5071862;28;20552;-69
2022/04/05 00:15:09;;;;;;;5.30;4.22;;;;;;;;;;5053695;28;20063;-70
2022/04/05 00:17:38;;;;;;;4.85;4.45;;;;;;;;;;5071700;28;20416;-69
2022/04/05 00:20:04;;;;;;;4.80;4.10;;;;;;;;;;5071264;28;20473;-69
2022/04/05 00:22:30;;;;;;;4.45;4.05;;;;;;;;;;5053575;28;20211;-70
2022/04/05 00:24:56;;;;;;;4.75;4.32;;;;;;;;;;5070680;28;20056;-69
2022/04/05 00:27:22;;;;;;;5.72;4.13;;;;;;;;;;5070824;28;20106;-69
2022/04/05 00:29:48;;;;;;;5.03;4.10;;;;;;;;;;5070355;28;20040;-70
2022/04/05 00:32:14;;;;;;;8.68;4.47;;;;;;;;;;5053642;28;20530;-69
2022/04/05 00:34:40;;;;;;;5.32;2.88;;;;;;;;;;5087009;28;20067;-70
2022/04/05 00:37:06;;;;;;;4.40;4.00;;;;;;;;;;5070456;28;20101;-70
2022/04/05 00:39:32;;;;;;;4.45;4.13;;;;;;;;;;5070961;28;20169;-70
2022/04/05 00:41:58;;;;;;;5.18;4.68;;;;;;;;;;5070829;28;20045;-69
2022/04/05 00:44:24;;;;;;;4.60;4.10;;;;;;;;;;5070876;28;20531;-68
2022/04/05 00:46:50;;;;;;;4.78;4.38;;;;;;;;;;5070083;28;20148;-69
2022/04/05 00:49:17;;;;;;;4.40;4.07;;;;;;;;;;5086040;28;20063;-70
2022/04/05 00:51:42;;;;;;;4.18;3.83;;;;;;;;;;5070570;28;20040;-70
2022/04/05 00:54:09;;;;;;;5.85;4.90;;;;;;;;;;5052815;28;20098;-69
2022/04/05 00:56:35;;;;;;;5.00;4.55;;;;;;;;;;5069693;28;20063;-69
2022/04/05 00:59:01;;;;;;;6.13;3.75;;;;;;;;;;5069475;28;20052;-70
2022/04/05 01:01:27;;;;;;;8.00;3.83;;;;;;;;;;5069390;28;20527;-70
2022/04/05 01:03:55;;;;;;;9.65;3.42;;;;;;;;;;5070844;28;20139;-71
2022/04/05 01:06:29;;;;;;;5.00;4.50;;;;;;;;;;5070963;28;20044;-71
2022/04/05 01:08:55;;;;;;;3.72;3.40;;;;;;;;;;5070232;28;20090;-71
2022/04/05 01:11:21;;;;;;;3.92;3.60;;;;;;;;;;5069890;28;20044;-70
2022/04/05 01:13:47;;;;;;;10.20;3.97;;;;;;;;;;5070602;28;20074;-69
2022/04/05 01:16:13;;;;;;;4.20;3.78;;;;;;;;;;5070115;28;20543;-71
2022/04/05 01:18:39;;;;;;;3.95;3.25;;;;;;;;;;5069398;28;20044;-70
2022/04/05 01:21:05;;;;;;;6.22;3.95;;;;;;;;;;5070337;28;20040;-70
2022/04/05 01:23:31;;;;;;;6.00;4.25;;;;;;;;;;5070387;28;20074;-71
2022/04/05 01:25:57;;;;;;;5.43;4.13;;;;;;;;;;5085546;28;20052;-70
2022/04/05 01:28:23;;;;;;;5.45;4.28;;;;;;;;;;5070535;28;20113;-71
2022/04/05 01:30:49;;;;;;;5.03;3.50;;;;;;;;;;5070287;28;20041;-70
2022/04/05 01:33:15;;;;;;;4.90;4.35;;;;;;;;;;5068672;28;20044;-71
2022/04/05 01:35:42;;;;;;;3.25;2.90;;;;;;;;;;5052358;28;20122;-70
2022/04/05 01:38:08;;;;;;;3.90;3.50;;;;;;;;;;5070552;28;20051;-70
2022/04/05 01:40:33;;;;;;;4.38;3.10;;;;;;;;;;5070331;28;20036;-70
2022/04/05 01:43:00;;;;;;;3.58;3.28;;;;;;;;;;5070556;28;20076;-70
2022/04/05 01:45:25;;;;;;;3.58;2.25;;;;;;;;;;5070155;28;20083;-69
2022/04/05 01:47:52;;;;;;;3.13;2.92;;;;;;;;;;5070308;28;20044;-71
2022/04/05 01:50:18;;;;;;;3.75;2.95;;;;;;;;;;5068789;28;20071;-71
2022/04/05 01:52:44;;;;;;;3.95;3.60;;;;;;;;;;5069362;28;20044;-71
2022/04/05 01:55:10;;;;;;;4.18;3.55;;;;;;;;;;5069882;28;20047;-71
2022/04/05 01:57:36;;;;;;;3.00;2.80;;;;;;;;;;5070046;28;20033;-70
2022/04/05 02:00:03;;;;;;;2.53;2.35;;;;;;;;;;5069216;28;20426;-71
2022/04/05 02:02:37;;;;;;;2.40;2.28;;;;;;;;;;5070139;28;20182;-71
2022/04/05 02:05:03;;;;;;;3.17;2.97;;;;;;;;;;5051553;28;20072;-70
2022/04/05 02:07:29;;;;;;;3.85;3.55;;;;;;;;;;5070199;28;20045;-69
2022/04/05 02:09:55;;;;;;;3.30;3.05;;;;;;;;;;5052054;28;20055;-71
2022/04/05 02:12:21;;;;;;;5.32;3.30;;;;;;;;;;5034917;28;20040;-70
2022/04/05 02:14:58;;;;;;;3.05;2.85;;;;;;;;;;5067229;28;20623;-70
2022/04/05 02:17:33;;;;;;;5.20;2.38;;;;;;;;;;5051804;28;20048;-69
2022/04/05 02:20:03;;;;;;;3.40;3.10;;;;;;;;;;5052224;28;20570;-71
2022/04/05 02:22:29;;;;;;;2.75;2.55;;;;;;;;;;5051982;28;20516;-70
2022/04/05 02:25:03;;;;;;;4.55;3.10;;;;;;;;;;5052013;28;20114;-70
2022/04/05 02:27:34;;;;;;;2.88;2.55;;;;;;;;;;5069940;28;20043;-71
2022/04/05 02:30:01;;;;;;;3.53;3.22;;;;;;;;;;5051938;28;20048;-68
2022/04/05 02:32:29;;;;;;;3.20;3.00;;;;;;;;;;5085173;28;20082;-71
2022/04/05 02:34:55;;;;;;;3.20;2.90;;;;;;;;;;5069912;28;20054;-71
2022/04/05 02:37:22;;;;;;;2.88;2.67;;;;;;;;;;5069834;28;20086;-70
2022/04/05 02:39:53;;;;;;;2.75;2.50;;;;;;;;;;5052676;28;20448;-70
2022/04/05 02:42:19;;;;;;;5.63;3.58;;;;;;;;;;5069413;28;20048;-70
2022/04/05 02:44:46;;;;;;;5.00;3.53;;;;;;;;;;5051770;28;20106;-70
2022/04/05 02:47:14;;;;;;;3.45;3.15;;;;;;;;;;5069294;28;20045;-74
2022/04/05 02:49:42;;;;;;;4.90;2.97;;;;;;;;;;5052199;28;20679;-71
2022/04/05 02:52:16;;;;;;;4.15;3.75;;;;;;;;;;5051916;28;20036;-71
2022/04/05 02:54:49;;;;;;;4.40;4.00;;;;;;;;;;5070237;28;20639;-70
2022/04/05 02:57:18;;;;;;;4.13;3.70;;;;;;;;;;5068244;28;20131;-71
2022/04/05 02:59:45;;;;;;;7.22;3.88;;;;;;;;;;5051347;28;20124;-71
2022/04/05 03:02:12;;;;;;;5.88;4.70;;;;;;;;;;5068448;28;20044;-73
2022/04/05 03:04:41;;;;;;;5.32;4.22;;;;;;;;;;5068482;28;20049;-71
2022/04/05 03:07:09;;;;;;;6.18;4.78;;;;;;;;;;5068702;28;20037;-71
2022/04/05 03:09:35;;;;;;;4.65;4.10;;;;;;;;;;5052228;28;20079;-71
2022/04/05 03:12:01;;;;;;;3.60;3.30;;;;;;;;;;5073419;28;20075;-71
2022/04/05 03:14:29;;;;;;;2.17;2.08;;;;;;;;;;5071768;28;20520;-71
2022/04/05 03:16:57;;;;;;;3.33;2.78;;;;;;;;;;5055251;28;20090;-70
2022/04/05 03:19:23;;;;;;;3.55;2.92;;;;;;;;;;5071437;28;20044;-70
2022/04/05 03:21:52;;;;;;;4.43;4.00;;;;;;;;;;5039018;28;20619;-73
2022/04/05 03:24:18;;;;;;;5.65;5.15;;;;;;;;;;5071252;28;20148;-71
2022/04/05 03:26:44;;;;;;;4.15;3.22;;;;;;;;;;5071620;28;20028;-71
2022/04/05 03:29:12;;;;;;;3.80;3.50;;;;;;;;;;5072076;28;20109;-71
2022/04/05 03:31:39;;;;;;;3.70;3.40;;;;;;;;;;5054354;28;20037;-70
2022/04/05 03:34:06;;;;;;;3.70;3.40;;;;;;;;;;5070859;28;20048;-71
2022/04/05 03:36:32;;;;;;;4.53;3.97;;;;;;;;;;5054490;28;20386;-71
2022/04/05 03:38:58;;;;;;;6.22;3.35;;;;;;;;;;5054231;28;20474;-71
2022/04/05 03:41:27;;;;;;;9.65;4.30;;;;;;;;;;5072112;28;20075;-70
2022/04/05 03:43:53;;;;;;;4.38;4.00;;;;;;;;;;5054976;28;20048;-71
2022/04/05 03:46:30;;;;;;;3.58;3.38;;;;;;;;;;5034877;28;20525;-72
2022/04/05 03:48:56;;;;;;;4.75;3.80;;;;;;;;;;5034825;28;20083;-70
2022/04/05 03:51:22;;;;;;;4.32;4.03;;;;;;;;;;5017593;28;20429;-72
2022/04/05 03:53:55;;;;;;;3.45;3.22;;;;;;;;;;5035760;28;20044;-72
2022/04/05 03:56:23;;;;;;;4.63;3.92;;;;;;;;;;5067488;28;20056;-72
2022/04/05 03:58:51;;;;;;;6.03;4.03;;;;;;;;;;5018421;28;20071;-73
2022/04/05 04:01:33;;;;;;;4.28;3.53;;;;;;;;;;5050759;28;20049;-72
2022/04/05 04:04:34;;;;;;;4.10;3.80;;;;;;;;;;5034201;28;20099;-72
2022/04/05 04:07:00;;;;;;;5.05;4.40;;;;;;;;;;5067663;28;20049;-71
2022/04/05 04:09:26;;;;;;;8.18;4.18;;;;;;;;;;5071771;28;20646;-72
2022/04/05 04:11:54;;;;;;;4.60;4.22;;;;;;;;;;5070590;28;20075;-72
2022/04/05 04:14:20;;;;;;;5.00;3.83;;;;;;;;;;5070082;28;20115;-71
2022/04/05 04:16:48;;;;;;;4.72;4.38;;;;;;;;;;5070476;28;20067;-72
2022/04/05 04:19:17;;;;;;;5.18;4.68;;;;;;;;;;5071405;28;20048;-71
2022/04/05 04:21:44;;;;;;;3.80;3.50;;;;;;;;;;5086143;28;20052;-71
2022/04/05 04:24:10;;;;;;;6.43;3.28;;;;;;;;;;5070249;28;20182;-70
2022/04/05 04:26:39;;;;;;;3.33;3.13;;;;;;;;;;5069853;28;20181;-71
2022/04/05 04:29:07;;;;;;;4.50;4.10;;;;;;;;;;5060460;28;20044;-77
2022/04/05 04:31:34;;;;;;;9.20;4.82;;;;;;;;;;5083420;28;20041;-74
2022/04/05 04:34:03;;;;;;;7.22;4.25;;;;;;;;;;5070957;28;20036;-74
2022/04/05 04:36:30;;;;;;;5.05;4.05;;;;;;;;;;5072152;28;20609;-74
2022/04/05 04:38:55;;;;;;;4.28;3.97;;;;;;;;;;5074487;28;20036;-74
2022/04/05 04:41:22;;;;;;;6.18;4.00;;;;;;;;;;5056840;28;20527;-74
2022/04/05 04:43:48;;;;;;;5.28;4.13;;;;;;;;;;5084300;28;20454;-75
2022/04/05 04:46:17;;;;;;;4.97;3.78;;;;;;;;;;5068716;28;20079;-74
2022/04/05 04:48:43;;;;;;;6.65;4.00;;;;;;;;;;5052638;28;20044;-74
2022/04/05 04:51:10;;;;;;;4.35;3.97;;;;;;;;;;5072678;28;20040;-75
2022/04/05 04:53:36;;;;;;;8.82;3.80;;;;;;;;;;5072745;28;20036;-76
2022/04/05 04:56:02;;;;;;;4.07;3.78;;;;;;;;;;5052934;28;20074;-75
2022/04/05 04:58:28;;;;;;;4.40;4.00;;;;;;;;;;5051758;28;20048;-75
2022/04/05 05:00:54;;;;;;;3.80;3.50;;;;;;;;;;5089612;28;20101;-75
2022/04/05 05:03:20;;;;;;;4.95;4.55;;;;;;;;;;5089595;28;20036;-75
2022/04/05 05:05:45;;;;;;;4.97;3.88;;;;;;;;;;5089641;28;20055;-75
2022/04/05 05:08:12;;;;;;;5.82;4.03;;;;;;;;;;5071633;28;20040;-75
2022/04/05 05:10:38;;;;;;;4.63;4.18;;;;;;;;;;5056565;28;20044;-76
2022/04/05 05:13:04;;;;;;;6.93;4.60;;;;;;;;;;5071112;28;20542;-76
2022/04/05 05:15:29;;;;;;;8.07;4.03;;;;;;;;;;5089564;28;20044;-77
2022/04/05 05:17:56;;;;;;;4.78;4.00;;;;;;;;;;5088710;28;20515;-76
2022/04/05 05:20:22;;;;;;;4.40;3.97;;;;;;;;;;5076362;28;20040;-76
2022/04/05 05:22:47;;;;;;;4.97;3.83;;;;;;;;;;5051464;28;20191;-76
2022/04/05 05:25:14;;;;;;;4.75;3.45;;;;;;;;;;5069321;28;20135;-76
2022/04/05 05:27:40;;;;;;;5.90;4.00;;;;;;;;;;5069058;28;20040;-78
2022/04/05 05:30:07;;;;;;;2.90;2.70;;;;;;;;;;5069548;28;20560;-79
2022/04/05 05:32:44;;;;;;;6.30;3.65;;;;;;;;;;5051128;28;20040;-77
2022/04/05 05:35:10;;;;;;;4.07;3.78;;;;;;;;;;5049143;28;20223;-77
2022/04/05 05:37:36;;;;;;;5.32;3.83;;;;;;;;;;5031411;28;20512;-77
2022/04/05 05:40:02;;;;;;;4.45;4.05;;;;;;;;;;5049122;28;20075;-76
2022/04/05 05:42:28;;;;;;;4.07;3.78;;;;;;;;;;5047048;28;20163;-77
2022/04/05 05:44:54;;;;;;;5.88;3.90;;;;;;;;;;5048949;28;20088;-77
2022/04/05 05:47:20;;;;;;;4.43;4.03;;;;;;;;;;5051170;28;20075;-76
2022/04/05 05:49:46;;;;;;;4.00;3.70;;;;;;;;;;5085506;28;20048;-73
2022/04/05 05:52:12;;;;;;;10.77;4.25;;;;;;;;;;5085721;28;20047;-76
2022/04/05 05:54:38;;;;;;;3.28;3.08;;;;;;;;;;5088967;28;20416;-76
2022/04/05 05:57:03;;;;;;;4.05;3.72;;;;;;;;;;5088150;28;20039;-76
2022/04/05 05:59:29;;;;;;;4.28;3.88;;;;;;;;;;5089138;28;20499;-75
2022/04/05 06:01:56;;;;;;;4.30;3.90;;;;;;;;;;5072683;28;20043;-77
2022/04/05 06:04:22;;;;;;;6.75;3.92;;;;;;;;;;5083801;28;20048;-75
2022/04/05 06:06:47;;;;;;;8.40;4.10;;;;;;;;;;5043799;28;20500;-77
2022/04/05 06:09:13;;;;;;;3.45;3.20;;;;;;;;;;5051733;28;20078;-76
2022/04/05 06:11:39;;;;;;;4.80;4.22;;;;;;;;;;5064644;28;20460;-74
2022/04/05 06:14:05;;;;;;;4.38;3.47;;;;;;;;;;5068225;28;20496;-75
2022/04/05 06:16:31;;;;;;;4.22;3.50;;;;;;;;;;5068678;28;20041;-75
2022/04/05 06:18:57;;;;;;;5.38;4.50;;;;;;;;;;5069231;28;20500;-76
2022/04/05 06:21:23;;;;;;;4.32;3.97;;;;;;;;;;5068848;28;20086;-75
2022/04/05 06:23:49;;;;;;;4.40;4.00;;;;;;;;;;5066814;28;20060;-75
2022/04/05 06:26:14;;;;;;;3.45;3.15;;;;;;;;;;5070484;28;20292;-75
2022/04/05 06:28:40;;;;;;;5.10;4.60;;;;;;;;;;5072933;28;20053;-74
2022/04/05 06:31:06;;;;;;;6.55;3.70;;;;;;;;;;5077242;28;20099;-75
2022/04/05 06:33:32;;;;;;;5.45;3.65;;;;;;;;;;5076150;28;20095;-75
2022/04/05 06:35:58;;;;;;;8.77;4.03;;;;;;;;;;5060618;28;20056;-76
2022/04/05 06:38:24;;;;;;;4.70;4.40;;;;;;;;;;5072300;28;20044;-74
2022/04/05 06:40:50;;;;;;;7.15;3.75;;;;;;;;;;5068481;28;20045;-75
2022/04/05 06:43:16;;;;;;;5.40;4.90;;;;;;;;;;5068292;28;20102;-75
2022/04/05 06:45:42;;;;;;;4.50;4.20;;;;;;;;;;5051840;28;20159;-74
2022/04/05 06:48:12;;;;;;;4.80;4.05;;;;;;;;;;5075423;28;20569;-77
2022/04/05 06:50:38;;;;;;;4.80;4.30;;;;;;;;;;5092438;28;20044;-76
2022/04/05 06:53:04;;;;;;;6.53;4.40;;;;;;;;;;5074183;28;20050;-74
2022/04/05 06:55:30;;;;;;;4.10;3.80;;;;;;;;;;5074186;28;20123;-76
2022/04/05 06:57:56;;;;;;;5.18;4.68;;;;;;;;;;5053266;28;20036;-75
2022/04/05 07:00:23;;;;;;;4.20;3.90;;;;;;;;;;5071415;28;20539;-74
2022/04/05 07:02:52;;;;;;;3.90;3.70;;;;;;;;;;5070315;28;20036;-74
2022/04/05 07:05:18;;;;;;;11.65;4.68;;;;;;;;;;5053493;28;20486;-75
2022/04/05 07:07:45;;;;;;;4.45;4.05;;;;;;;;;;5053759;28;20646;-75
2022/04/05 07:10:11;;;;;;;4.60;4.20;;;;;;;;;;5037978;28;20036;-76
2022/04/05 07:12:37;;;;;;;4.47;3.78;;;;;;;;;;5071396;28;20036;-75
2022/04/05 07:15:04;;;;;;;5.53;4.32;;;;;;;;;;5053537;28;20104;-75
2022/04/05 07:17:29;;;;;;;4.75;4.30;;;;;;;;;;5071284;28;20116;-74
2022/04/05 07:19:55;;;;;;;4.47;4.00;;;;;;;;;;5071516;28;20131;-74
2022/04/05 07:22:22;;;;;;;4.88;4.47;;;;;;;;;;5071066;28;20044;-73
2022/04/05 07:24:47;;;;;;;5.20;4.68;;;;;;;;;;5071735;28;20049;-74
2022/04/05 07:27:13;;;;;;;10.65;5.05;;;;;;;;;;5052164;28;20046;-74
2022/04/05 07:29:39;;;;;;;6.35;4.28;;;;;;;;;;5036634;28;20044;-74
2022/04/05 07:32:06;;;;;;;5.40;4.90;;;;;;;;;;5071324;28;20413;-75
2022/04/05 07:34:32;;;;;;;6.47;4.57;;;;;;;;;;5053146;28;20039;-75
2022/04/05 07:36:58;;;;;;;4.60;4.20;;;;;;;;;;5053403;28;20458;-76
2022/04/05 07:39:24;;;;;;;5.63;4.25;;;;;;;;;;5071835;28;20044;-75
2022/04/05 07:41:50;;;;;;;5.22;4.70;;;;;;;;;;5071443;28;20055;-75
2022/04/05 07:44:16;;;;;;;3.78;3.47;;;;;;;;;;5071246;28;20049;-74
2022/04/05 07:46:43;;;;;;;3.90;3.60;;;;;;;;;;5052846;28;20109;-74
2022/04/05 07:49:08;;;;;;;4.30;3.90;;;;;;;;;;5086084;28;20518;-73
2022/04/05 07:51:34;;;;;;;4.32;3.92;;;;;;;;;;5070072;28;20135;-73
2022/04/05 07:54:00;;;;;;;4.80;4.40;;;;;;;;;;5052822;28;20079;-74
2022/04/05 07:56:26;;;;;;;4.10;3.75;;;;;;;;;;5069288;28;20080;-74
2022/04/05 07:58:52;;;;;;;5.00;4.50;;;;;;;;;;5068571;28;20129;-74
2022/04/05 08:01:18;;;;;;;4.68;4.28;;;;;;;;;;5070178;28;20048;-74
2022/04/05 08:03:44;;;;;;;4.22;3.92;;;;;;;;;;5083601;28;20036;-74
2022/04/05 08:06:10;;;;;;;4.63;4.22;;;;;;;;;;5091110;28;20070;-73
2022/04/05 08:08:36;;;;;;;4.18;3.78;;;;;;;;;;5072164;28;20094;-75
2022/04/05 08:11:02;;;;;;;6.32;4.50;;;;;;;;;;5072458;28;20147;-75
2022/04/05 08:13:28;;;;;;;3.67;3.38;;;;;;;;;;5070056;28;20041;-74
2022/04/05 08:15:54;;;;;;;4.32;3.92;;;;;;;;;;5069115;28;20068;-73
2022/04/05 08:18:20;;;;;;;6.88;3.90;;;;;;;;;;5068757;28;20071;-73
2022/04/05 08:20:46;;;;;;;4.20;3.90;;;;;;;;;;5069998;28;20044;-73
2022/04/05 08:23:12;;;;;;;4.40;4.00;;;;;;;;;;5051343;28;20041;-73
2022/04/05 08:25:38;;;;;;;4.10;3.72;;;;;;;;;;5070123;28;20471;-74
2022/04/05 08:28:04;;;;;;;3.78;3.58;;;;;;;;;;5068805;28;20036;-75
2022/04/05 08:30:30;;;;;;;4.32;4.03;;;;;;;;;;5068475;28;20423;-73
2022/04/05 08:32:56;;;;;;;4.63;4.18;;;;;;;;;;5069936;28;20044;-73
2022/04/05 08:35:22;;;;;;;4.35;3.95;;;;;;;;;;5069149;28;20051;-74
2022/04/05 08:37:48;;;;;;;8.63;4.22;;;;;;;;;;5051489;28;20492;-74
2022/04/05 08:40:14;;;;;;;3.83;3.63;;;;;;;;;;5052041;28;20044;-74
2022/04/05 08:42:48;;;;;;;3.90;3.60;;;;;;;;;;5051674;28;20053;-73
2022/04/05 08:45:14;;;;;;;4.15;3.85;;;;;;;;;;5052818;28;20060;-75
2022/04/05 08:47:46;;;;;;;4.00;3.72;;;;;;;;;;5073410;28;20032;-72
2022/04/05 08:50:16;;;;;;;4.55;4.15;;;;;;;;;;5064922;28;20047;-74
2022/04/05 08:52:42;;;;;;;4.45;3.95;;;;;;;;;;5069643;28;20567;-74
2022/04/05 08:55:08;;;;;;;4.05;3.75;;;;;;;;;;5052476;28;20075;-73
2022/04/05 08:57:34;;;;;;;4.65;3.83;;;;;;;;;;5071469;28;20036;-73
2022/04/05 09:00:01;;;;;;;3.22;3.03;;;;;;;;;;5073836;28;20032;-73
2022/04/05 09:02:29;;;;;;;5.78;3.55;;;;;;;;;;5084568;28;20059;-73
2022/04/05 09:04:55;;;;;;;4.25;3.88;;;;;;;;;;5094949;28;20051;-73
2022/04/05 09:07:24;;;;;;;4.03;3.72;;;;;;;;;;5082988;28;20048;-74
2022/04/05 09:10:09;;;;;;;4.18;3.78;;;;;;;;;;5078036;28;20044;-74
2022/04/05 09:12:38;;;;;;;3.10;2.90;;;;;;;;;;5067139;28;20484;-71
2022/04/05 09:15:08;;;;;;;3.92;3.63;;;;;;;;;;5089607;28;20051;-72
2022/04/05 09:17:38;;;;;;;4.18;3.70;;;;;;;;;;5088918;28;20082;-74
2022/04/05 09:20:05;;;;;;;3.28;3.08;;;;;;;;;;5054495;28;20121;-73
2022/04/05 09:22:32;;;;;;;3.90;3.60;;;;;;;;;;5088823;28;20036;-73
2022/04/05 09:25:02;;;;;;;3.83;3.50;;;;;;;;;;5070760;28;20092;-73
2022/04/05 09:27:41;;;;;;;4.63;3.90;;;;;;;;;;5070869;28;20040;-74
2022/04/05 09:30:10;;;;;;;4.03;3.63;;;;;;;;;;5088918;28;20036;-73
2022/04/05 09:32:37;;;;;;;5.68;3.90;;;;;;;;;;5088670;28;20465;-76
2022/04/05 09:35:03;;;;;;;3.38;3.17;;;;;;;;;;5054134;28;20155;-74
2022/04/05 09:37:29;;;;;;;5.22;3.70;;;;;;;;;;5088611;28;20044;-72
2022/04/05 09:40:13;;;;;;;4.32;3.92;;;;;;;;;;5083114;28;20565;-75
2022/04/05 09:42:56;;;;;;;3.42;2.95;;;;;;;;;;5050718;28;20040;-76
2022/04/05 09:45:40;;;;;;;3.22;2.72;;;;;;;;;;5068818;28;20114;-76
2022/04/05 09:48:08;;;;;;;4.93;3.63;;;;;;;;;;5067064;28;20052;-76
2022/04/05 09:50:53;;;;;;;3.50;3.30;;;;;;;;;;5031156;28;20045;-75
2022/04/05 09:53:20;;;;;;;3.95;3.53;;;;;;;;;;5049668;28;20048;-76
2022/04/05 09:55:46;;;;;;;4.03;3.47;;;;;;;;;;5070167;28;20502;-75
2022/04/05 09:58:12;;;;;;;2.95;2.85;;;;;;;;;;5070845;28;20036;-75
2022/04/05 10:00:38;;;;;;;3.40;3.10;;;;;;;;;;5088016;28;20051;-74
2022/04/05 10:03:05;;;;;;;3.50;3.20;;;;;;;;;;5071068;28;20044;-74
2022/04/05 10:05:32;;;;;;;4.03;3.72;;;;;;;;;;5068257;28;20052;-75
2022/04/05 10:07:57;;;;;;;3.80;3.08;;;;;;;;;;5033843;28;20428;-74
2022/04/05 10:10:23;;;;;;;3.10;2.90;;;;;;;;;;5070472;28;20036;-75
2022/04/05 10:12:49;;;;;;;3.50;3.20;;;;;;;;;;5079212;28;20110;-75
2022/04/05 10:15:15;;;;;;;3.67;3.47;;;;;;;;;;5067369;28;20044;-76
2022/04/05 10:17:43;;;;;;;3.22;3.03;;;;;;;;;;5067805;28;20512;-75
2022/04/05 10:20:10;;;;;;;6.80;3.53;;;;;;;;;;5069525;28;20621;-74
2022/04/05 10:22:35;;;;;;;3.08;2.90;;;;;;;;;;5072868;28;20072;-74
2022/04/05 10:25:02;;;;;;;2.80;2.60;;;;;;;;;;5072358;28;20099;-75
2022/04/05 10:27:28;;;;;;;3.08;2.88;;;;;;;;;;5070422;28;20036;-75
2022/04/05 10:30:05;;;;;;;3.35;3.15;;;;;;;;;;5072422;28;20055;-76
2022/04/05 10:32:51;;;;;;;3.38;3.17;;;;;;;;;;5071441;28;20037;-77
2022/04/05 10:35:18;;;;;;;3.55;3.25;;;;;;;;;;5071770;28;20064;-75
2022/04/05 10:37:44;;;;;;;3.28;3.08;;;;;;;;;;5054237;28;20531;-75
2022/04/05 10:40:10;;;;;;;3.05;2.85;;;;;;;;;;5072543;28;20045;-75
2022/04/05 10:42:37;;;;;;;6.53;3.40;;;;;;;;;;5070863;28;20068;-75
2022/04/05 10:45:17;;;;;;;3.60;3.30;;;;;;;;;;5071958;28;20044;-75
2022/04/05 10:48:02;;;;;;;3.13;2.92;;;;;;;;;;5080648;28;20074;-75
2022/04/05 10:50:29;;;;;;;3.20;3.00;;;;;;;;;;5095862;28;20051;-76
2022/04/05 10:53:12;;;;;;;4.43;3.97;;;;;;;;;;5057584;28;20036;-76
2022/04/05 10:55:57;;;;;;;3.72;3.42;;;;;;;;;;5081881;28;20055;-76
2022/04/05 10:58:23;;;;;;;3.72;3.40;;;;;;;;;;5038336;28;20078;-75
2022/04/05 11:00:49;;;;;;;4.00;3.70;;;;;;;;;;5054043;28;20070;-74
2022/04/05 11:03:14;;;;;;;3.42;3.03;;;;;;;;;;5071784;28;20064;-75
2022/04/05 11:05:42;;;;;;;3.58;3.38;;;;;;;;;;5054323;28;20672;-75
2022/04/05 11:08:11;;;;;;;3.70;3.17;;;;;;;;;;5052463;28;20041;-74
2022/04/05 11:10:37;;;;;;;3.30;3.10;;;;;;;;;;5071738;28;20050;-74
2022/04/05 11:13:06;;;;;;;3.17;2.97;;;;;;;;;;5082944;28;20130;-75
2022/04/05 11:15:51;;;;;;;5.55;3.95;;;;;;;;;;5068267;28;20051;-76
2022/04/05 11:18:18;;;;;;;3.83;3.58;;;;;;;;;;5056602;28;20043;-75
2022/04/05 11:20:45;;;;;;;4.13;3.83;;;;;;;;;;5075609;28;20047;-76
2022/04/05 11:23:12;;;;;;;3.63;3.40;;;;;;;;;;5071679;28;20488;-75
2022/04/05 11:25:38;;;;;;;3.30;3.10;;;;;;;;;;5052688;28;20048;-75
2022/04/05 11:28:12;;;;;;;3.13;2.92;;;;;;;;;;5053405;28;20036;-75
2022/04/05 11:30:39;;;;;;;3.80;3.50;;;;;;;;;;5071346;28;20044;-75
2022/04/05 11:33:15;;;;;;;3.97;3.65;;;;;;;;;;5070349;28;20455;-74
2022/04/05 11:36:00;;;;;;;3.00;2.80;;;;;;;;;;5071329;28;20046;-75
2022/04/05 11:38:27;;;;;;;4.00;3.70;;;;;;;;;;5071430;28;20051;-75
2022/04/05 11:40:53;;;;;;;3.75;3.45;;;;;;;;;;5071332;28;20075;-75
2022/04/05 11:43:27;;;;;;;3.35;3.15;;;;;;;;;;5053088;28;20076;-74
2022/04/05 11:45:54;;;;;;;3.67;3.38;;;;;;;;;;5070299;28;20044;-75
2022/04/05 11:48:20;;;;;;;3.58;3.28;;;;;;;;;;5084335;28;20058;-74
2022/04/05 11:50:46;;;;;;;4.18;3.55;;;;;;;;;;5091323;28;20271;-76
2022/04/05 11:53:26;;;;;;;3.58;3.28;;;;;;;;;;5089795;28;20040;-77
2022/04/05 11:56:08;;;;;;;6.32;3.55;;;;;;;;;;5085614;28;20087;-75
2022/04/05 11:58:35;;;;;;;4.43;3.78;;;;;;;;;;5070767;28;20500;-74
2022/04/05 12:01:03;;;;;;;3.72;3.50;;;;;;;;;;5036900;28;20048;-72
2022/04/05 12:03:29;;;;;;;4.10;3.78;;;;;;;;;;5036486;28;20138;-73
2022/04/05 12:05:55;;;;;;;4.35;4.05;;;;;;;;;;5070877;28;20135;-74
2022/04/05 12:08:21;;;;;;;4.85;4.35;;;;;;;;;;5051445;28;20063;-73
2022/04/05 12:10:48;;;;;;;4.43;4.05;;;;;;;;;;5052235;28;20131;-73
2022/04/05 12:13:14;;;;;;;3.78;3.47;;;;;;;;;;5071031;28;20452;-77
2022/04/05 12:15:39;;;;;;;4.85;4.32;;;;;;;;;;5071029;28;20048;-75
2022/04/05 12:18:19;;;;;;;4.43;4.10;;;;;;;;;;5053081;28;20047;-74
2022/04/05 12:20:53;;;;;;;4.90;4.50;;;;;;;;;;5072992;28;20558;-75
2022/04/05 12:23:21;;;;;;;4.47;4.22;;;;;;;;;;5092252;28;20039;-76
2022/04/05 12:26:13;;;;;;;4.57;4.20;;;;;;;;;;5089729;28;20567;-76
2022/04/05 12:28:46;;;;;;;4.93;3.85;;;;;;;;;;5056195;28;20131;-75
2022/04/05 12:31:16;;;;;;;4.00;3.67;;;;;;;;;;5037812;28;20047;-76
2022/04/05 12:33:42;;;;;;;5.20;4.68;;;;;;;;;;5069248;28;20045;-76
2022/04/05 12:36:08;;;;;;;6.25;4.95;;;;;;;;;;5071759;28;20036;-74
2022/04/05 12:38:34;;;;;;;9.30;4.28;;;;;;;;;;5071340;28;20139;-76
2022/04/05 12:41:03;;;;;;;5.28;4.78;;;;;;;;;;5071246;28;20143;-74
2022/04/05 12:43:29;;;;;;;5.20;4.50;;;;;;;;;;5070179;28;20056;-75
2022/04/05 12:45:55;;;;;;;4.65;4.25;;;;;;;;;;5068755;28;20094;-73
2022/04/05 12:48:21;;;;;;;5.70;4.68;;;;;;;;;;5085572;28;20198;-76
2022/04/05 12:50:51;;;;;;;4.40;3.97;;;;;;;;;;5073461;28;20140;-78
2022/04/05 12:53:25;;;;;;;4.35;4.05;;;;;;;;;;5073765;28;20036;-76
2022/04/05 12:55:58;;;;;;;4.65;4.30;;;;;;;;;;5091286;28;20048;-75
2022/04/05 12:58:40;;;;;;;4.72;3.85;;;;;;;;;;5062585;28;20091;-74
2022/04/05 13:01:16;;;;;;;4.25;3.95;;;;;;;;;;5070006;28;20059;-74
2022/04/05 13:03:42;;;;;;;4.40;4.00;;;;;;;;;;5071048;28;20032;-74
2022/04/05 13:06:20;;;;;;;4.53;4.13;;;;;;;;;;5071391;28;20101;-74
2022/04/05 13:08:46;;;;;;;4.07;3.88;;;;;;;;;;5070756;28;20036;-75
2022/04/05 13:11:22;;;;;;;4.30;3.80;;;;;;;;;;5048820;28;20044;-74
2022/04/05 13:13:48;;;;;;;9.18;4.60;;;;;;;;;;5051318;28;20527;-73
2022/04/05 13:16:15;;;;;;;4.38;3.97;;;;;;;;;;5056228;28;20044;-74
2022/04/05 13:18:44;;;;;;;5.60;5.10;;;;;;;;;;5070776;28;20039;-75
2022/04/05 13:21:17;;;;;;;4.82;4.50;;;;;;;;;;5071552;28;20119;-74
2022/04/05 13:23:43;;;;;;;6.13;5.18;;;;;;;;;;5070133;28;20028;-75
2022/04/05 13:26:18;;;;;;;4.70;4.32;;;;;;;;;;5077101;28;20060;-74
2022/04/05 13:28:44;;;;;;;6.20;5.38;;;;;;;;;;5073210;28;20522;-74
2022/04/05 13:31:11;;;;;;;5.43;5.03;;;;;;;;;;5091289;28;20117;-74
2022/04/05 13:33:37;;;;;;;5.40;4.03;;;;;;;;;;5085762;28;20058;-75
2022/04/05 13:36:04;;;;;;;5.25;4.85;;;;;;;;;;5073892;28;20516;-75
2022/04/05 13:38:31;;;;;;;4.97;4.68;;;;;;;;;;5051619;28;20052;-74
2022/04/05 13:40:58;;;;;;;4.97;4.57;;;;;;;;;;5071535;28;20117;-73
2022/04/05 13:43:24;;;;;;;4.80;4.40;;;;;;;;;;5069766;28;20043;-72
2022/04/05 13:45:49;;;;;;;4.82;4.43;;;;;;;;;;5051940;28;20044;-74
2022/04/05 13:48:15;;;;;;;4.80;4.43;;;;;;;;;;5082644;28;20090;-74
2022/04/05 13:50:42;;;;;;;5.00;4.60;;;;;;;;;;5090212;28;20036;-73
2022/04/05 13:53:08;;;;;;;4.78;4.38;;;;;;;;;;5096202;28;20040;-76
2022/04/05 13:55:34;;;;;;;5.15;4.75;;;;;;;;;;5101215;28;20044;-74
2022/04/05 13:58:00;;;;;;;4.85;4.40;;;;;;;;;;5101490;28;20039;-75
2022/04/05 14:00:25;;;;;;;4.68;4.32;;;;;;;;;;5083241;28;20041;-74
2022/04/05 14:02:54;;;;;;;5.47;4.97;;;;;;;;;;5079012;28;20637;-76
2022/04/05 14:05:21;;;;;;;4.90;4.50;;;;;;;;;;5081559;28;20056;-77
2022/04/05 14:07:47;;;;;;;5.28;4.78;;;;;;;;;;5082283;28;20047;-76
2022/04/05 14:10:13;;;;;;;6.50;5.72;;;;;;;;;;5084938;28;20044;-79
2022/04/05 14:12:39;;;;;;;5.10;4.38;;;;;;;;;;5080013;28;20480;-76
2022/04/05 14:15:06;;;;;;;5.40;5.00;;;;;;;;;;5065030;28;20072;-76
2022/04/05 14:17:32;;;;;;;6.47;5.90;;;;;;;;;;5072432;28;20042;-75
2022/04/05 14:19:58;;;;;;;5.82;5.32;;;;;;;;;;5076624;28;20048;-74
2022/04/05 14:22:23;;;;;;;5.95;5.35;;;;;;;;;;5073538;28;20059;-74
2022/04/05 14:24:49;;;;;;;5.88;5.47;;;;;;;;;;5067670;28;20056;-75
2022/04/05 14:27:15;;;;;;;5.07;4.68;;;;;;;;;;5093218;28;20062;-74
2022/04/05 14:29:41;;;;;;;6.28;5.78;;;;;;;;;;5095588;28;20511;-75
2022/04/05 14:32:08;;;;;;;4.55;4.25;;;;;;;;;;5095383;28;20044;-75
2022/04/05 14:34:35;;;;;;;5.25;4.85;;;;;;;;;;5075185;28;20036;-76
2022/04/05 14:37:01;;;;;;;6.25;5.65;;;;;;;;;;5076096;28;20048;-74
2022/04/05 14:39:27;;;;;;;5.72;5.30;;;;;;;;;;5067861;28;20035;-74
2022/04/05 14:41:53;;;;;;;6.07;5.68;;;;;;;;;;5033861;28;20127;-76
2022/04/05 14:44:20;;;;;;;6.22;5.80;;;;;;;;;;5069079;28;20041;-77
2022/04/05 14:46:46;;;;;;;7.22;5.07;;;;;;;;;;5068872;28;20110;-77